sensor_id;sensor_type;location;lat;lon;timestamp;P1;durP1;ratioP1;P2;durP2;ratioP2
31680;SDS011;18281;51.364;9.566;2024-02-14T00:01:08;3.85;;;2.45;;
31680;SDS011;18281;51.364;9.566;2024-02-14T00:03:36;7.05;;;2.88;;
31680;SDS011;18281;51.364;9.566;2024-02-14T00:06:03;7.93;;;3.08;;
31680;SDS011;18281;51.364;9.566;2024-02-14T00:08:30;6.00;;;2.83;;
31680;SDS011;18281;51.364;9.566;2024-02-14T00:10:56;6.18;;;2.90;;
31680;SDS011;18281;51.364;9.566;2024-02-14T00:13:21;7.72;;;3.10;;
31680;SDS011;18281;51.364;9.566;2024-02-14T00:15:47;6.65;;;2.78;;
31680;SDS011;18281;51.364;9.566;2024-02-14T00:18:12;8.07;;;2.90;;
31680;SDS011;18281;51.364;9.566;2024-02-14T00:20:38;5.10;;;2.83;;
31680;SDS011;18281;51.364;9.566;2024-02-14T00:23:06;6.90;;;3.20;;
31680;SDS011;18281;51.364;9.566;2024-02-14T00:25:31;7.75;;;3.45;;
31680;SDS011;18281;51.364;9.566;2024-02-14T00:27:57;4.80;;;3.10;;
31680;SDS011;18281;51.364;9.566;2024-02-14T00:30:29;13.65;;;3.78;;
31680;SDS011;18281;51.364;9.566;2024-02-14T00:32:54;6.93;;;3.25;;
31680;SDS011;18281;51.364;9.566;2024-02-14T00:35:20;9.07;;;3.53;;
31680;SDS011;18281;51.364;9.566;2024-02-14T00:37:45;11.18;;;4.03;;
31680;SDS011;18281;51.364;9.566;2024-02-14T00:40:11;10.63;;;3.88;;
31680;SDS011;18281;51.364;9.566;2024-02-14T00:42:36;10.45;;;3.88;;
31680;SDS011;18281;51.364;9.566;2024-02-14T00:45:02;8.70;;;3.67;;
31680;SDS011;18281;51.364;9.566;2024-02-14T00:47:28;11.50;;;4.03;;
31680;SDS011;18281;51.364;9.566;2024-02-14T00:49:53;11.50;;;4.20;;
31680;SDS011;18281;51.364;9.566;2024-02-14T00:52:18;9.75;;;3.97;;
31680;SDS011;18281;51.364;9.566;2024-02-14T00:54:46;9.13;;;4.05;;
31680;SDS011;18281;51.364;9.566;2024-02-14T00:57:12;9.18;;;3.75;;
31680;SDS011;18281;51.364;9.566;2024-02-14T00:59:37;7.32;;;3.47;;
31680;SDS011;18281;51.364;9.566;2024-02-14T01:02:03;13.10;;;3.97;;
31680;SDS011;18281;51.364;9.566;2024-02-14T01:04:29;8.20;;;3.92;;
31680;SDS011;18281;51.364;9.566;2024-02-14T01:06:55;10.63;;;3.45;;
31680;SDS011;18281;51.364;9.566;2024-02-14T01:09:20;5.70;;;3.38;;
31680;SDS011;18281;51.364;9.566;2024-02-14T01:11:45;4.88;;;2.78;;
31680;SDS011;18281;51.364;9.566;2024-02-14T01:14:11;4.90;;;3.05;;
31680;SDS011;18281;51.364;9.566;2024-02-14T01:16:42;5.65;;;3.00;;
31680;SDS011;18281;51.364;9.566;2024-02-14T01:19:09;7.07;;;2.90;;
31680;SDS011;18281;51.364;9.566;2024-02-14T01:21:35;7.25;;;3.35;;
31680;SDS011;18281;51.364;9.566;2024-02-14T01:24:00;3.38;;;2.33;;
31680;SDS011;18281;51.364;9.566;2024-02-14T01:26:26;3.38;;;1.70;;
31680;SDS011;18281;51.364;9.566;2024-02-14T01:28:51;3.97;;;1.88;;
31680;SDS011;18281;51.364;9.566;2024-02-14T01:31:16;3.20;;;1.80;;
31680;SDS011;18281;51.364;9.566;2024-02-14T01:33:42;3.35;;;1.63;;
31680;SDS011;18281;51.364;9.566;2024-02-14T01:36:08;1.73;;;1.60;;
31680;SDS011;18281;51.364;9.566;2024-02-14T01:38:33;1.75;;;1.30;;
31680;SDS011;18281;51.364;9.566;2024-02-14T01:41:01;2.88;;;1.58;;
31680;SDS011;18281;51.364;9.566;2024-02-14T01:43:27;3.75;;;1.27;;
31680;SDS011;18281;51.364;9.566;2024-02-14T01:45:53;4.00;;;1.40;;
31680;SDS011;18281;51.364;9.566;2024-02-14T01:48:18;2.78;;;1.95;;
31680;SDS011;18281;51.364;9.566;2024-02-14T01:50:45;1.73;;;1.10;;
31680;SDS011;18281;51.364;9.566;2024-02-14T01:53:11;3.53;;;1.65;;
31680;SDS011;18281;51.364;9.566;2024-02-14T01:55:37;3.97;;;1.55;;
31680;SDS011;18281;51.364;9.566;2024-02-14T01:58:03;4.82;;;1.80;;
31680;SDS011;18281;51.364;9.566;2024-02-14T02:00:29;4.43;;;1.20;;
31680;SDS011;18281;51.364;9.566;2024-02-14T02:02:56;2.72;;;1.83;;
31680;SDS011;18281;51.364;9.566;2024-02-14T02:05:22;3.78;;;1.40;;
31680;SDS011;18281;51.364;9.566;2024-02-14T02:07:47;2.08;;;1.30;;
31680;SDS011;18281;51.364;9.566;2024-02-14T02:10:13;2.67;;;1.27;;
31680;SDS011;18281;51.364;9.566;2024-02-14T02:12:39;1.23;;;0.95;;
31680;SDS011;18281;51.364;9.566;2024-02-14T02:15:05;3.75;;;1.40;;
31680;SDS011;18281;51.364;9.566;2024-02-14T02:17:31;1.58;;;1.10;;
31680;SDS011;18281;51.364;9.566;2024-02-14T02:19:59;3.50;;;1.30;;
31680;SDS011;18281;51.364;9.566;2024-02-14T02:22:25;1.40;;;1.02;;
31680;SDS011;18281;51.364;9.566;2024-02-14T02:24:50;2.50;;;1.63;;
31680;SDS011;18281;51.364;9.566;2024-02-14T02:27:16;3.40;;;1.30;;
31680;SDS011;18281;51.364;9.566;2024-02-14T02:29:41;3.53;;;1.30;;
31680;SDS011;18281;51.364;9.566;2024-02-14T02:32:07;1.45;;;1.10;;
31680;SDS011;18281;51.364;9.566;2024-02-14T02:34:34;2.10;;;1.05;;
31680;SDS011;18281;51.364;9.566;2024-02-14T02:37:01;3.75;;;1.08;;
31680;SDS011;18281;51.364;9.566;2024-02-14T02:39:26;1.83;;;1.20;;
31680;SDS011;18281;51.364;9.566;2024-02-14T02:41:52;1.30;;;1.00;;
31680;SDS011;18281;51.364;9.566;2024-02-14T02:44:20;4.22;;;1.27;;
31680;SDS011;18281;51.364;9.566;2024-02-14T02:46:46;3.35;;;1.48;;
31680;SDS011;18281;51.364;9.566;2024-02-14T02:49:11;3.50;;;0.90;;
31680;SDS011;18281;51.364;9.566;2024-02-14T02:51:39;4.32;;;1.00;;
31680;SDS011;18281;51.364;9.566;2024-02-14T02:54:04;2.05;;;1.48;;
31680;SDS011;18281;51.364;9.566;2024-02-14T02:56:29;3.58;;;1.10;;
31680;SDS011;18281;51.364;9.566;2024-02-14T02:58:55;2.20;;;0.77;;
31680;SDS011;18281;51.364;9.566;2024-02-14T03:01:21;2.30;;;1.20;;
31680;SDS011;18281;51.364;9.566;2024-02-14T03:03:49;2.22;;;1.02;;
31680;SDS011;18281;51.364;9.566;2024-02-14T03:06:14;3.50;;;1.40;;
31680;SDS011;18281;51.364;9.566;2024-02-14T03:08:39;1.52;;;1.00;;
31680;SDS011;18281;51.364;9.566;2024-02-14T03:11:05;2.17;;;1.15;;
31680;SDS011;18281;51.364;9.566;2024-02-14T03:13:31;3.20;;;1.40;;
31680;SDS011;18281;51.364;9.566;2024-02-14T03:15:57;4.78;;;1.30;;
31680;SDS011;18281;51.364;9.566;2024-02-14T03:18:23;3.95;;;1.25;;
31680;SDS011;18281;51.364;9.566;2024-02-14T03:20:49;3.17;;;0.82;;
31680;SDS011;18281;51.364;9.566;2024-02-14T03:23:18;1.80;;;1.13;;
31680;SDS011;18281;51.364;9.566;2024-02-14T03:25:44;2.33;;;1.17;;
31680;SDS011;18281;51.364;9.566;2024-02-14T03:28:09;2.83;;;1.17;;
31680;SDS011;18281;51.364;9.566;2024-02-14T03:30:38;7.15;;;1.17;;
31680;SDS011;18281;51.364;9.566;2024-02-14T03:33:06;2.75;;;1.27;;
31680;SDS011;18281;51.364;9.566;2024-02-14T03:35:33;2.45;;;1.10;;
31680;SDS011;18281;51.364;9.566;2024-02-14T03:37:59;4.53;;;1.05;;
31680;SDS011;18281;51.364;9.566;2024-02-14T03:40:26;2.45;;;1.05;;
31680;SDS011;18281;51.364;9.566;2024-02-14T03:42:51;2.38;;;1.02;;
31680;SDS011;18281;51.364;9.566;2024-02-14T03:45:18;2.88;;;1.02;;
31680;SDS011;18281;51.364;9.566;2024-02-14T03:47:43;2.35;;;1.02;;
31680;SDS011;18281;51.364;9.566;2024-02-14T03:50:09;3.42;;;1.00;;
31680;SDS011;18281;51.364;9.566;2024-02-14T03:52:34;3.42;;;1.30;;
31680;SDS011;18281;51.364;9.566;2024-02-14T03:55:00;4.47;;;1.20;;
31680;SDS011;18281;51.364;9.566;2024-02-14T03:57:27;3.22;;;1.20;;
31680;SDS011;18281;51.364;9.566;2024-02-14T03:59:54;4.55;;;1.10;;
31680;SDS011;18281;51.364;9.566;2024-02-14T04:02:20;5.47;;;1.17;;
31680;SDS011;18281;51.364;9.566;2024-02-14T04:04:46;2.45;;;1.00;;
31680;SDS011;18281;51.364;9.566;2024-02-14T04:07:12;2.25;;;1.08;;
31680;SDS011;18281;51.364;9.566;2024-02-14T04:09:37;2.78;;;1.17;;
31680;SDS011;18281;51.364;9.566;2024-02-14T04:12:03;4.60;;;1.20;;
31680;SDS011;18281;51.364;9.566;2024-02-14T04:14:29;3.72;;;1.35;;
31680;SDS011;18281;51.364;9.566;2024-02-14T04:16:54;4.15;;;1.40;;
31680;SDS011;18281;51.364;9.566;2024-02-14T04:19:19;2.55;;;1.25;;
31680;SDS011;18281;51.364;9.566;2024-02-14T04:21:45;5.30;;;1.80;;
31680;SDS011;18281;51.364;9.566;2024-02-14T04:24:11;3.05;;;1.48;;
31680;SDS011;18281;51.364;9.566;2024-02-14T04:26:37;2.97;;;1.15;;
31680;SDS011;18281;51.364;9.566;2024-02-14T04:29:02;4.00;;;1.33;;
31680;SDS011;18281;51.364;9.566;2024-02-14T04:31:27;4.57;;;1.48;;
31680;SDS011;18281;51.364;9.566;2024-02-14T04:33:55;6.35;;;1.50;;
31680;SDS011;18281;51.364;9.566;2024-02-14T04:36:20;2.10;;;1.38;;
31680;SDS011;18281;51.364;9.566;2024-02-14T04:38:48;5.38;;;1.58;;
31680;SDS011;18281;51.364;9.566;2024-02-14T04:41:14;2.83;;;1.23;;
31680;SDS011;18281;51.364;9.566;2024-02-14T04:43:39;4.03;;;1.60;;
31680;SDS011;18281;51.364;9.566;2024-02-14T04:46:05;4.78;;;1.20;;
31680;SDS011;18281;51.364;9.566;2024-02-14T04:48:35;3.95;;;1.40;;
31680;SDS011;18281;51.364;9.566;2024-02-14T04:51:02;2.55;;;1.40;;
31680;SDS011;18281;51.364;9.566;2024-02-14T04:53:29;4.40;;;1.30;;
31680;SDS011;18281;51.364;9.566;2024-02-14T04:55:55;4.25;;;1.38;;
31680;SDS011;18281;51.364;9.566;2024-02-14T04:58:20;4.50;;;1.45;;
31680;SDS011;18281;51.364;9.566;2024-02-14T05:00:46;3.30;;;1.58;;
31680;SDS011;18281;51.364;9.566;2024-02-14T05:03:11;5.20;;;1.50;;
31680;SDS011;18281;51.364;9.566;2024-02-14T05:05:37;1.73;;;1.10;;
31680;SDS011;18281;51.364;9.566;2024-02-14T05:08:03;5.72;;;1.30;;
31680;SDS011;18281;51.364;9.566;2024-02-14T05:10:29;3.35;;;1.95;;
31680;SDS011;18281;51.364;9.566;2024-02-14T05:12:54;5.03;;;1.55;;
31680;SDS011;18281;51.364;9.566;2024-02-14T05:15:20;3.83;;;1.75;;
31680;SDS011;18281;51.364;9.566;2024-02-14T05:17:46;6.15;;;1.33;;
31680;SDS011;18281;51.364;9.566;2024-02-14T05:20:11;2.55;;;1.10;;
31680;SDS011;18281;51.364;9.566;2024-02-14T05:22:37;2.20;;;1.17;;
31680;SDS011;18281;51.364;9.566;2024-02-14T05:25:04;2.72;;;1.13;;
31680;SDS011;18281;51.364;9.566;2024-02-14T05:27:33;3.72;;;1.30;;
31680;SDS011;18281;51.364;9.566;2024-02-14T05:29:58;3.40;;;1.50;;
31680;SDS011;18281;51.364;9.566;2024-02-14T05:32:24;2.75;;;1.90;;
31680;SDS011;18281;51.364;9.566;2024-02-14T05:34:50;5.18;;;1.50;;
31680;SDS011;18281;51.364;9.566;2024-02-14T05:37:16;4.88;;;1.38;;
31680;SDS011;18281;51.364;9.566;2024-02-14T05:39:41;3.53;;;1.25;;
31680;SDS011;18281;51.364;9.566;2024-02-14T05:42:07;2.78;;;1.30;;
31680;SDS011;18281;51.364;9.566;2024-02-14T05:44:33;3.08;;;1.48;;
31680;SDS011;18281;51.364;9.566;2024-02-14T05:46:58;6.32;;;1.50;;
31680;SDS011;18281;51.364;9.566;2024-02-14T05:49:23;2.85;;;1.48;;
31680;SDS011;18281;51.364;9.566;2024-02-14T05:51:49;2.47;;;1.42;;
31680;SDS011;18281;51.364;9.566;2024-02-14T05:54:16;6.55;;;1.45;;
31680;SDS011;18281;51.364;9.566;2024-02-14T05:56:41;3.38;;;1.30;;
31680;SDS011;18281;51.364;9.566;2024-02-14T05:59:07;3.78;;;1.80;;
31680;SDS011;18281;51.364;9.566;2024-02-14T06:01:33;3.55;;;1.50;;
31680;SDS011;18281;51.364;9.566;2024-02-14T06:03:59;2.63;;;1.30;;
31680;SDS011;18281;51.364;9.566;2024-02-14T06:06:24;4.68;;;1.88;;
31680;SDS011;18281;51.364;9.566;2024-02-14T06:08:49;4.03;;;1.73;;
31680;SDS011;18281;51.364;9.566;2024-02-14T06:11:15;6.95;;;1.80;;
31680;SDS011;18281;51.364;9.566;2024-02-14T06:13:41;5.63;;;1.75;;
31680;SDS011;18281;51.364;9.566;2024-02-14T06:16:06;7.00;;;1.48;;
31680;SDS011;18281;51.364;9.566;2024-02-14T06:18:33;3.05;;;1.38;;
31680;SDS011;18281;51.364;9.566;2024-02-14T06:20:59;4.88;;;1.60;;
31680;SDS011;18281;51.364;9.566;2024-02-14T06:23:25;2.58;;;1.50;;
31680;SDS011;18281;51.364;9.566;2024-02-14T06:25:50;6.50;;;1.80;;
31680;SDS011;18281;51.364;9.566;2024-02-14T06:28:15;8.82;;;1.45;;
31680;SDS011;18281;51.364;9.566;2024-02-14T06:30:41;2.47;;;1.52;;
31680;SDS011;18281;51.364;9.566;2024-02-14T06:33:06;6.05;;;1.90;;
31680;SDS011;18281;51.364;9.566;2024-02-14T06:35:31;3.65;;;1.65;;
31680;SDS011;18281;51.364;9.566;2024-02-14T06:37:57;5.70;;;1.65;;
31680;SDS011;18281;51.364;9.566;2024-02-14T06:40:22;3.28;;;1.65;;
31680;SDS011;18281;51.364;9.566;2024-02-14T06:42:48;4.40;;;1.65;;
31680;SDS011;18281;51.364;9.566;2024-02-14T06:45:15;2.90;;;1.88;;
31680;SDS011;18281;51.364;9.566;2024-02-14T06:47:41;4.05;;;1.60;;
31680;SDS011;18281;51.364;9.566;2024-02-14T06:50:06;2.88;;;1.70;;
31680;SDS011;18281;51.364;9.566;2024-02-14T06:52:33;2.47;;;1.80;;
31680;SDS011;18281;51.364;9.566;2024-02-14T06:54:58;7.03;;;1.77;;
31680;SDS011;18281;51.364;9.566;2024-02-14T06:57:24;4.22;;;1.98;;
31680;SDS011;18281;51.364;9.566;2024-02-14T06:59:49;2.33;;;1.70;;
31680;SDS011;18281;51.364;9.566;2024-02-14T07:02:14;4.45;;;1.42;;
31680;SDS011;18281;51.364;9.566;2024-02-14T07:04:39;8.20;;;2.33;;
31680;SDS011;18281;51.364;9.566;2024-02-14T07:07:05;6.18;;;1.98;;
31680;SDS011;18281;51.364;9.566;2024-02-14T07:09:31;5.35;;;2.17;;
31680;SDS011;18281;51.364;9.566;2024-02-14T07:11:57;7.03;;;2.65;;
31680;SDS011;18281;51.364;9.566;2024-02-14T07:14:23;3.95;;;1.92;;
31680;SDS011;18281;51.364;9.566;2024-02-14T07:16:48;6.03;;;2.13;;
31680;SDS011;18281;51.364;9.566;2024-02-14T07:19:14;3.67;;;2.30;;
31680;SDS011;18281;51.364;9.566;2024-02-14T07:21:39;3.83;;;1.77;;
31680;SDS011;18281;51.364;9.566;2024-02-14T07:24:05;6.57;;;1.73;;
31680;SDS011;18281;51.364;9.566;2024-02-14T07:26:30;8.10;;;2.00;;
31680;SDS011;18281;51.364;9.566;2024-02-14T07:28:56;8.63;;;1.60;;
31680;SDS011;18281;51.364;9.566;2024-02-14T07:31:21;4.13;;;1.65;;
31680;SDS011;18281;51.364;9.566;2024-02-14T07:33:47;7.35;;;2.00;;
31680;SDS011;18281;51.364;9.566;2024-02-14T07:36:13;5.20;;;2.38;;
31680;SDS011;18281;51.364;9.566;2024-02-14T07:38:39;4.68;;;2.28;;
31680;SDS011;18281;51.364;9.566;2024-02-14T07:41:04;5.07;;;2.00;;
31680;SDS011;18281;51.364;9.566;2024-02-14T07:43:30;4.25;;;1.95;;
31680;SDS011;18281;51.364;9.566;2024-02-14T07:45:55;3.45;;;1.90;;
31680;SDS011;18281;51.364;9.566;2024-02-14T07:48:21;3.85;;;2.10;;
31680;SDS011;18281;51.364;9.566;2024-02-14T07:50:47;4.55;;;2.00;;
31680;SDS011;18281;51.364;9.566;2024-02-14T07:53:13;4.70;;;1.80;;
31680;SDS011;18281;51.364;9.566;2024-02-14T07:55:38;3.83;;;1.80;;
31680;SDS011;18281;51.364;9.566;2024-02-14T07:58:05;4.65;;;1.98;;
31680;SDS011;18281;51.364;9.566;2024-02-14T08:00:30;6.05;;;2.10;;
31680;SDS011;18281;51.364;9.566;2024-02-14T08:02:55;4.28;;;2.25;;
31680;SDS011;18281;51.364;9.566;2024-02-14T08:05:21;11.40;;;3.35;;
31680;SDS011;18281;51.364;9.566;2024-02-14T08:07:46;4.70;;;2.30;;
31680;SDS011;18281;51.364;9.566;2024-02-14T08:10:12;7.22;;;2.88;;
31680;SDS011;18281;51.364;9.566;2024-02-14T08:12:37;8.63;;;2.63;;
31680;SDS011;18281;51.364;9.566;2024-02-14T08:15:03;8.88;;;3.10;;
31680;SDS011;18281;51.364;9.566;2024-02-14T08:17:31;2.67;;;2.00;;
31680;SDS011;18281;51.364;9.566;2024-02-14T08:19:56;7.65;;;3.15;;
31680;SDS011;18281;51.364;9.566;2024-02-14T08:22:22;4.45;;;2.58;;
31680;SDS011;18281;51.364;9.566;2024-02-14T08:24:47;4.72;;;2.38;;
31680;SDS011;18281;51.364;9.566;2024-02-14T08:27:13;6.55;;;2.25;;
31680;SDS011;18281;51.364;9.566;2024-02-14T08:29:38;6.88;;;2.30;;
31680;SDS011;18281;51.364;9.566;2024-02-14T08:32:03;6.72;;;2.30;;
31680;SDS011;18281;51.364;9.566;2024-02-14T08:34:30;6.05;;;2.20;;
31680;SDS011;18281;51.364;9.566;2024-02-14T08:36:55;4.65;;;2.40;;
31680;SDS011;18281;51.364;9.566;2024-02-14T08:39:21;5.65;;;2.60;;
31680;SDS011;18281;51.364;9.566;2024-02-14T08:41:46;7.35;;;3.00;;
31680;SDS011;18281;51.364;9.566;2024-02-14T08:44:12;8.52;;;2.65;;
31680;SDS011;18281;51.364;9.566;2024-02-14T08:46:38;4.97;;;2.50;;
31680;SDS011;18281;51.364;9.566;2024-02-14T08:49:04;10.13;;;2.70;;
31680;SDS011;18281;51.364;9.566;2024-02-14T08:53:59;9.55;;;2.45;;
31680;SDS011;18281;51.364;9.566;2024-02-14T08:56:30;5.70;;;2.50;;
31680;SDS011;18281;51.364;9.566;2024-02-14T08:58:58;4.20;;;2.15;;
31680;SDS011;18281;51.364;9.566;2024-02-14T09:01:27;5.18;;;2.63;;
31680;SDS011;18281;51.364;9.566;2024-02-14T09:03:53;7.18;;;2.75;;
31680;SDS011;18281;51.364;9.566;2024-02-14T09:06:19;7.38;;;2.85;;
31680;SDS011;18281;51.364;9.566;2024-02-14T09:08:44;3.70;;;2.50;;
31680;SDS011;18281;51.364;9.566;2024-02-14T09:11:10;5.97;;;2.60;;
31680;SDS011;18281;51.364;9.566;2024-02-14T09:13:37;3.42;;;2.22;;
31680;SDS011;18281;51.364;9.566;2024-02-14T09:16:02;5.75;;;3.33;;
31680;SDS011;18281;51.364;9.566;2024-02-14T09:18:28;6.25;;;2.88;;
31680;SDS011;18281;51.364;9.566;2024-02-14T09:20:56;3.92;;;2.45;;
31680;SDS011;18281;51.364;9.566;2024-02-14T09:23:22;5.78;;;2.70;;
31680;SDS011;18281;51.364;9.566;2024-02-14T09:25:48;3.67;;;2.45;;
31680;SDS011;18281;51.364;9.566;2024-02-14T09:28:15;8.70;;;2.47;;
31680;SDS011;18281;51.364;9.566;2024-02-14T09:30:41;8.20;;;4.22;;
31680;SDS011;18281;51.364;9.566;2024-02-14T09:33:07;3.97;;;2.97;;
31680;SDS011;18281;51.364;9.566;2024-02-14T09:35:32;5.43;;;2.65;;
31680;SDS011;18281;51.364;9.566;2024-02-14T09:37:57;4.13;;;2.33;;
31680;SDS011;18281;51.364;9.566;2024-02-14T09:40:24;5.65;;;2.50;;
31680;SDS011;18281;51.364;9.566;2024-02-14T09:42:54;4.32;;;2.42;;
31680;SDS011;18281;51.364;9.566;2024-02-14T09:45:22;5.43;;;2.33;;
31680;SDS011;18281;51.364;9.566;2024-02-14T09:50:16;8.18;;;3.13;;
31680;SDS011;18281;51.364;9.566;2024-02-14T09:52:42;6.97;;;3.17;;
31680;SDS011;18281;51.364;9.566;2024-02-14T09:55:09;5.80;;;2.95;;
31680;SDS011;18281;51.364;9.566;2024-02-14T09:57:37;7.90;;;2.65;;
31680;SDS011;18281;51.364;9.566;2024-02-14T10:00:06;6.18;;;2.70;;
31680;SDS011;18281;51.364;9.566;2024-02-14T10:02:34;8.45;;;2.63;;
31680;SDS011;18281;51.364;9.566;2024-02-14T10:05:00;3.78;;;2.47;;
31680;SDS011;18281;51.364;9.566;2024-02-14T10:07:26;5.38;;;2.45;;
31680;SDS011;18281;51.364;9.566;2024-02-14T10:09:52;4.53;;;2.30;;
31680;SDS011;18281;51.364;9.566;2024-02-14T10:12:18;5.35;;;2.33;;
31680;SDS011;18281;51.364;9.566;2024-02-14T10:14:44;5.85;;;2.58;;
31680;SDS011;18281;51.364;9.566;2024-02-14T10:17:17;6.07;;;2.60;;
31680;SDS011;18281;51.364;9.566;2024-02-14T10:19:55;5.00;;;2.58;;
31680;SDS011;18281;51.364;9.566;2024-02-14T10:22:21;4.72;;;2.30;;
31680;SDS011;18281;51.364;9.566;2024-02-14T10:24:46;7.40;;;2.72;;
31680;SDS011;18281;51.364;9.566;2024-02-14T10:27:12;5.93;;;2.67;;
31680;SDS011;18281;51.364;9.566;2024-02-14T10:29:37;4.07;;;2.63;;
31680;SDS011;18281;51.364;9.566;2024-02-14T10:32:03;4.88;;;2.75;;
31680;SDS011;18281;51.364;9.566;2024-02-14T10:34:29;4.50;;;2.80;;
31680;SDS011;18281;51.364;9.566;2024-02-14T10:36:56;7.10;;;3.20;;
31680;SDS011;18281;51.364;9.566;2024-02-14T10:39:22;5.72;;;3.25;;
31680;SDS011;18281;51.364;9.566;2024-02-14T10:41:51;5.70;;;2.92;;
31680;SDS011;18281;51.364;9.566;2024-02-14T10:44:16;4.80;;;2.50;;
31680;SDS011;18281;51.364;9.566;2024-02-14T10:46:41;5.72;;;2.67;;
31680;SDS011;18281;51.364;9.566;2024-02-14T10:49:10;10.40;;;2.90;;
31680;SDS011;18281;51.364;9.566;2024-02-14T10:51:36;7.70;;;2.70;;
31680;SDS011;18281;51.364;9.566;2024-02-14T10:54:09;5.65;;;2.80;;
31680;SDS011;18281;51.364;9.566;2024-02-14T10:56:38;6.50;;;3.85;;
31680;SDS011;18281;51.364;9.566;2024-02-14T10:59:05;6.28;;;3.05;;
31680;SDS011;18281;51.364;9.566;2024-02-14T11:01:33;3.15;;;2.70;;
31680;SDS011;18281;51.364;9.566;2024-02-14T11:04:00;5.03;;;3.10;;
31680;SDS011;18281;51.364;9.566;2024-02-14T11:06:25;3.63;;;2.35;;
31680;SDS011;18281;51.364;9.566;2024-02-14T11:09:01;4.15;;;2.55;;
31680;SDS011;18281;51.364;9.566;2024-02-14T11:11:35;5.72;;;2.30;;
31680;SDS011;18281;51.364;9.566;2024-02-14T11:14:02;4.30;;;1.95;;
31680;SDS011;18281;51.364;9.566;2024-02-14T11:16:30;5.22;;;2.30;;
31680;SDS011;18281;51.364;9.566;2024-02-14T11:19:10;5.65;;;2.50;;
31680;SDS011;18281;51.364;9.566;2024-02-14T11:21:37;7.22;;;2.67;;
31680;SDS011;18281;51.364;9.566;2024-02-14T11:24:08;4.30;;;2.38;;
31680;SDS011;18281;51.364;9.566;2024-02-14T11:26:39;8.18;;;2.50;;
31680;SDS011;18281;51.364;9.566;2024-02-14T11:29:05;5.85;;;2.22;;
31680;SDS011;18281;51.364;9.566;2024-02-14T11:31:32;3.67;;;2.38;;
31680;SDS011;18281;51.364;9.566;2024-02-14T11:34:02;4.45;;;2.08;;
31680;SDS011;18281;51.364;9.566;2024-02-14T11:36:29;6.63;;;2.22;;
31680;SDS011;18281;51.364;9.566;2024-02-14T11:38:55;7.03;;;2.30;;
31680;SDS011;18281;51.364;9.566;2024-02-14T11:41:22;10.45;;;2.20;;
31680;SDS011;18281;51.364;9.566;2024-02-14T11:43:51;4.15;;;2.03;;
31680;SDS011;18281;51.364;9.566;2024-02-14T11:46:16;5.15;;;1.98;;
31680;SDS011;18281;51.364;9.566;2024-02-14T11:48:43;6.03;;;2.22;;
31680;SDS011;18281;51.364;9.566;2024-02-14T11:51:11;9.80;;;2.47;;
31680;SDS011;18281;51.364;9.566;2024-02-14T11:53:36;5.30;;;2.10;;
31680;SDS011;18281;51.364;9.566;2024-02-14T11:56:04;2.83;;;1.88;;
31680;SDS011;18281;51.364;9.566;2024-02-14T11:58:30;3.78;;;2.00;;
31680;SDS011;18281;51.364;9.566;2024-02-14T12:00:56;5.03;;;2.30;;
31680;SDS011;18281;51.364;9.566;2024-02-14T12:03:22;4.28;;;1.90;;
31680;SDS011;18281;51.364;9.566;2024-02-14T12:05:49;4.68;;;1.90;;
31680;SDS011;18281;51.364;9.566;2024-02-14T12:08:16;2.78;;;1.98;;
31680;SDS011;18281;51.364;9.566;2024-02-14T12:10:43;2.47;;;1.70;;
31680;SDS011;18281;51.364;9.566;2024-02-14T12:13:12;3.30;;;1.77;;
31680;SDS011;18281;51.364;9.566;2024-02-14T12:15:41;3.85;;;1.85;;
31680;SDS011;18281;51.364;9.566;2024-02-14T12:18:09;6.85;;;1.88;;
31680;SDS011;18281;51.364;9.566;2024-02-14T12:20:36;3.10;;;1.60;;
31680;SDS011;18281;51.364;9.566;2024-02-14T12:23:02;2.90;;;1.73;;
31680;SDS011;18281;51.364;9.566;2024-02-14T12:25:28;2.80;;;1.52;;
31680;SDS011;18281;51.364;9.566;2024-02-14T12:27:56;3.78;;;2.58;;
31680;SDS011;18281;51.364;9.566;2024-02-14T12:30:23;2.25;;;1.50;;
31680;SDS011;18281;51.364;9.566;2024-02-14T12:32:58;5.20;;;1.55;;
31680;SDS011;18281;51.364;9.566;2024-02-14T12:35:24;3.22;;;1.58;;
31680;SDS011;18281;51.364;9.566;2024-02-14T12:37:50;2.65;;;1.77;;
31680;SDS011;18281;51.364;9.566;2024-02-14T12:40:15;7.13;;;1.70;;
31680;SDS011;18281;51.364;9.566;2024-02-14T12:42:41;2.75;;;1.58;;
31680;SDS011;18281;51.364;9.566;2024-02-14T12:45:07;4.05;;;1.60;;
31680;SDS011;18281;51.364;9.566;2024-02-14T12:47:32;3.78;;;1.88;;
31680;SDS011;18281;51.364;9.566;2024-02-14T12:49:59;3.63;;;1.65;;
31680;SDS011;18281;51.364;9.566;2024-02-14T12:52:25;2.83;;;1.65;;
31680;SDS011;18281;51.364;9.566;2024-02-14T12:54:51;3.05;;;1.65;;
31680;SDS011;18281;51.364;9.566;2024-02-14T12:57:16;2.28;;;1.63;;
31680;SDS011;18281;51.364;9.566;2024-02-14T12:59:42;3.33;;;2.00;;
31680;SDS011;18281;51.364;9.566;2024-02-14T13:02:07;2.35;;;1.73;;
31680;SDS011;18281;51.364;9.566;2024-02-14T13:04:33;2.35;;;1.60;;
31680;SDS011;18281;51.364;9.566;2024-02-14T13:06:58;3.15;;;1.70;;
31680;SDS011;18281;51.364;9.566;2024-02-14T13:09:24;2.38;;;1.55;;
31680;SDS011;18281;51.364;9.566;2024-02-14T13:11:49;4.25;;;1.88;;
31680;SDS011;18281;51.364;9.566;2024-02-14T13:14:14;4.50;;;2.03;;
31680;SDS011;18281;51.364;9.566;2024-02-14T13:16:40;4.45;;;1.60;;
31680;SDS011;18281;51.364;9.566;2024-02-14T13:19:05;3.13;;;1.58;;
31680;SDS011;18281;51.364;9.566;2024-02-14T13:21:31;1.80;;;1.58;;
31680;SDS011;18281;51.364;9.566;2024-02-14T13:23:56;5.60;;;1.88;;
31680;SDS011;18281;51.364;9.566;2024-02-14T13:26:22;4.13;;;1.92;;
31680;SDS011;18281;51.364;9.566;2024-02-14T13:28:48;4.28;;;2.15;;
31680;SDS011;18281;51.364;9.566;2024-02-14T13:31:15;3.75;;;2.20;;
31680;SDS011;18281;51.364;9.566;2024-02-14T13:33:40;6.68;;;2.15;;
31680;SDS011;18281;51.364;9.566;2024-02-14T13:36:06;5.53;;;2.45;;
31680;SDS011;18281;51.364;9.566;2024-02-14T13:38:31;2.28;;;1.90;;
31680;SDS011;18281;51.364;9.566;2024-02-14T13:40:57;4.25;;;2.30;;
31680;SDS011;18281;51.364;9.566;2024-02-14T13:43:23;4.95;;;2.28;;
31680;SDS011;18281;51.364;9.566;2024-02-14T13:45:48;3.65;;;2.33;;
31680;SDS011;18281;51.364;9.566;2024-02-14T13:48:15;4.53;;;2.05;;
31680;SDS011;18281;51.364;9.566;2024-02-14T13:50:41;2.05;;;1.60;;
31680;SDS011;18281;51.364;9.566;2024-02-14T13:53:09;10.38;;;3.30;;
31680;SDS011;18281;51.364;9.566;2024-02-14T13:55:34;3.33;;;1.48;;
31680;SDS011;18281;51.364;9.566;2024-02-14T13:57:59;4.22;;;1.65;;
31680;SDS011;18281;51.364;9.566;2024-02-14T14:00:25;5.68;;;1.80;;
31680;SDS011;18281;51.364;9.566;2024-02-14T14:02:50;4.50;;;2.00;;
31680;SDS011;18281;51.364;9.566;2024-02-14T14:05:15;3.35;;;1.90;;
31680;SDS011;18281;51.364;9.566;2024-02-14T14:07:41;3.08;;;1.83;;
31680;SDS011;18281;51.364;9.566;2024-02-14T14:10:07;7.28;;;1.95;;
31680;SDS011;18281;51.364;9.566;2024-02-14T14:12:34;2.83;;;1.55;;
31680;SDS011;18281;51.364;9.566;2024-02-14T14:15:00;3.08;;;1.60;;
31680;SDS011;18281;51.364;9.566;2024-02-14T14:17:26;3.13;;;1.90;;
31680;SDS011;18281;51.364;9.566;2024-02-14T14:19:53;3.20;;;1.70;;
31680;SDS011;18281;51.364;9.566;2024-02-14T14:22:19;2.15;;;1.42;;
31680;SDS011;18281;51.364;9.566;2024-02-14T14:24:44;3.10;;;1.90;;
31680;SDS011;18281;51.364;9.566;2024-02-14T14:27:10;2.55;;;1.50;;
31680;SDS011;18281;51.364;9.566;2024-02-14T14:29:39;2.45;;;1.48;;
31680;SDS011;18281;51.364;9.566;2024-02-14T14:32:06;2.60;;;1.60;;
31680;SDS011;18281;51.364;9.566;2024-02-14T14:34:32;2.20;;;1.40;;
31680;SDS011;18281;51.364;9.566;2024-02-14T14:36:58;2.72;;;2.08;;
31680;SDS011;18281;51.364;9.566;2024-02-14T14:39:23;6.45;;;1.80;;
31680;SDS011;18281;51.364;9.566;2024-02-14T14:41:49;6.05;;;2.28;;
31680;SDS011;18281;51.364;9.566;2024-02-14T14:44:16;5.22;;;1.60;;
31680;SDS011;18281;51.364;9.566;2024-02-14T14:46:41;2.90;;;1.75;;